sensor_id;sensor_type;location;lat;lon;timestamp;P1;durP1;ratioP1;P2;durP2;ratioP2
63807;SDS011;49961;43.970;22.868;2023-03-01T00:00:48;38.20;;;32.37;;
63807;SDS011;49961;43.970;22.868;2023-03-01T00:01:48;36.43;;;32.03;;
63807;SDS011;49961;43.970;22.868;2023-03-01T00:02:49;36.07;;;31.57;;
63807;SDS011;49961;43.970;22.868;2023-03-01T00:03:49;40.57;;;31.63;;
63807;SDS011;49961;43.970;22.868;2023-03-01T00:04:50;36.03;;;30.83;;
63807;SDS011;49961;43.970;22.868;2023-03-01T00:05:51;36.13;;;32.23;;
63807;SDS011;49961;43.970;22.868;2023-03-01T00:06:51;38.03;;;31.63;;
63807;SDS011;49961;43.970;22.868;2023-03-01T00:07:52;38.30;;;30.97;;
63807;SDS011;49961;43.970;22.868;2023-03-01T00:08:53;35.65;;;31.30;;
63807;SDS011;49961;43.970;22.868;2023-03-01T00:09:54;36.00;;;31.23;;
63807;SDS011;49961;43.970;22.868;2023-03-01T00:11:13;35.90;;;30.90;;
63807;SDS011;49961;43.970;22.868;2023-03-01T00:12:18;36.72;;;30.80;;
63807;SDS011;49961;43.970;22.868;2023-03-01T00:13:19;35.50;;;31.07;;
63807;SDS011;49961;43.970;22.868;2023-03-01T00:14:19;36.17;;;31.07;;
63807;SDS011;49961;43.970;22.868;2023-03-01T00:15:20;35.80;;;29.77;;
63807;SDS011;49961;43.970;22.868;2023-03-01T00:16:25;35.47;;;29.93;;
63807;SDS011;49961;43.970;22.868;2023-03-01T00:17:27;35.70;;;31.17;;
63807;SDS011;49961;43.970;22.868;2023-03-01T00:18:28;36.30;;;31.00;;
63807;SDS011;49961;43.970;22.868;2023-03-01T00:19:29;35.80;;;30.70;;
63807;SDS011;49961;43.970;22.868;2023-03-01T00:20:29;35.63;;;29.80;;
63807;SDS011;49961;43.970;22.868;2023-03-01T00:21:30;35.57;;;30.77;;
63807;SDS011;49961;43.970;22.868;2023-03-01T00:22:30;36.47;;;30.70;;
63807;SDS011;49961;43.970;22.868;2023-03-01T00:23:31;36.23;;;31.13;;
63807;SDS011;49961;43.970;22.868;2023-03-01T00:24:34;35.53;;;29.92;;
63807;SDS011;49961;43.970;22.868;2023-03-01T00:25:40;34.83;;;29.43;;
63807;SDS011;49961;43.970;22.868;2023-03-01T00:26:41;35.55;;;30.52;;
63807;SDS011;49961;43.970;22.868;2023-03-01T00:27:42;34.60;;;30.10;;
63807;SDS011;49961;43.970;22.868;2023-03-01T00:28:42;35.07;;;31.13;;
63807;SDS011;49961;43.970;22.868;2023-03-01T00:29:42;37.43;;;31.40;;
63807;SDS011;49961;43.970;22.868;2023-03-01T00:30:43;34.20;;;30.47;;
63807;SDS011;49961;43.970;22.868;2023-03-01T00:31:44;35.17;;;30.50;;
63807;SDS011;49961;43.970;22.868;2023-03-01T00:32:44;36.40;;;30.77;;
63807;SDS011;49961;43.970;22.868;2023-03-01T00:34:04;34.00;;;30.17;;
63807;SDS011;49961;43.970;22.868;2023-03-01T00:35:05;34.88;;;30.27;;
63807;SDS011;49961;43.970;22.868;2023-03-01T00:36:05;35.93;;;30.43;;
63807;SDS011;49961;43.970;22.868;2023-03-01T00:37:06;36.97;;;30.80;;
63807;SDS011;49961;43.970;22.868;2023-03-01T00:38:07;36.67;;;30.07;;
63807;SDS011;49961;43.970;22.868;2023-03-01T00:39:10;34.00;;;30.35;;
63807;SDS011;49961;43.970;22.868;2023-03-01T00:40:13;35.00;;;30.35;;
63807;SDS011;49961;43.970;22.868;2023-03-01T00:41:16;34.38;;;29.75;;
63807;SDS011;49961;43.970;22.868;2023-03-01T00:42:18;34.53;;;30.05;;
63807;SDS011;49961;43.970;22.868;2023-03-01T00:43:19;33.07;;;29.47;;
63807;SDS011;49961;43.970;22.868;2023-03-01T00:44:19;33.97;;;28.87;;
63807;SDS011;49961;43.970;22.868;2023-03-01T00:45:20;32.73;;;29.17;;
63807;SDS011;49961;43.970;22.868;2023-03-01T00:46:22;36.33;;;31.10;;
63807;SDS011;49961;43.970;22.868;2023-03-01T00:47:24;34.55;;;29.85;;
63807;SDS011;49961;43.970;22.868;2023-03-01T00:48:24;34.23;;;30.03;;
63807;SDS011;49961;43.970;22.868;2023-03-01T00:49:25;34.37;;;29.07;;
63807;SDS011;49961;43.970;22.868;2023-03-01T00:50:27;32.78;;;28.95;;
63807;SDS011;49961;43.970;22.868;2023-03-01T00:51:28;34.63;;;29.40;;
63807;SDS011;49961;43.970;22.868;2023-03-01T00:52:29;36.65;;;30.27;;
63807;SDS011;49961;43.970;22.868;2023-03-01T00:53:30;35.10;;;29.63;;
63807;SDS011;49961;43.970;22.868;2023-03-01T00:54:30;33.47;;;29.37;;
63807;SDS011;49961;43.970;22.868;2023-03-01T00:55:31;34.23;;;29.80;;
63807;SDS011;49961;43.970;22.868;2023-03-01T00:56:31;31.20;;;27.57;;
63807;SDS011;49961;43.970;22.868;2023-03-01T00:57:32;33.43;;;28.03;;
63807;SDS011;49961;43.970;22.868;2023-03-01T00:58:33;33.47;;;28.93;;
63807;SDS011;49961;43.970;22.868;2023-03-01T00:59:34;32.92;;;29.35;;
63807;SDS011;49961;43.970;22.868;2023-03-01T01:00:35;34.33;;;30.47;;
63807;SDS011;49961;43.970;22.868;2023-03-01T01:01:35;34.43;;;30.23;;
63807;SDS011;49961;43.970;22.868;2023-03-01T01:02:36;33.93;;;29.10;;
63807;SDS011;49961;43.970;22.868;2023-03-01T01:03:37;34.83;;;29.43;;
63807;SDS011;49961;43.970;22.868;2023-03-01T01:04:37;34.90;;;29.03;;
63807;SDS011;49961;43.970;22.868;2023-03-01T01:05:38;32.80;;;28.77;;
63807;SDS011;49961;43.970;22.868;2023-03-01T01:07:42;35.88;;;28.67;;
63807;SDS011;49961;43.970;22.868;2023-03-01T01:08:42;34.17;;;28.63;;
63807;SDS011;49961;43.970;22.868;2023-03-01T01:09:43;33.20;;;28.37;;
63807;SDS011;49961;43.970;22.868;2023-03-01T01:10:44;31.87;;;28.13;;
63807;SDS011;49961;43.970;22.868;2023-03-01T01:11:48;34.15;;;28.58;;
63807;SDS011;49961;43.970;22.868;2023-03-01T01:12:50;32.80;;;26.95;;
63807;SDS011;49961;43.970;22.868;2023-03-01T01:13:51;31.30;;;27.97;;
63807;SDS011;49961;43.970;22.868;2023-03-01T01:14:52;31.52;;;27.08;;
63807;SDS011;49961;43.970;22.868;2023-03-01T01:15:53;32.37;;;27.57;;
63807;SDS011;49961;43.970;22.868;2023-03-01T01:16:53;30.97;;;27.20;;
63807;SDS011;49961;43.970;22.868;2023-03-01T01:17:54;30.67;;;27.38;;
63807;SDS011;49961;43.970;22.868;2023-03-01T01:18:55;33.37;;;26.87;;
63807;SDS011;49961;43.970;22.868;2023-03-01T01:19:56;32.13;;;27.10;;
63807;SDS011;49961;43.970;22.868;2023-03-01T01:20:57;30.37;;;26.70;;
63807;SDS011;49961;43.970;22.868;2023-03-01T01:21:57;30.60;;;27.13;;
63807;SDS011;49961;43.970;22.868;2023-03-01T01:22:58;30.67;;;26.80;;
63807;SDS011;49961;43.970;22.868;2023-03-01T01:23:58;31.77;;;26.87;;
63807;SDS011;49961;43.970;22.868;2023-03-01T01:24:59;31.60;;;27.83;;
63807;SDS011;49961;43.970;22.868;2023-03-01T01:26:04;32.50;;;28.07;;
63807;SDS011;49961;43.970;22.868;2023-03-01T01:27:05;33.90;;;28.42;;
63807;SDS011;49961;43.970;22.868;2023-03-01T01:28:07;31.15;;;27.05;;
63807;SDS011;49961;43.970;22.868;2023-03-01T01:29:07;33.13;;;27.47;;
63807;SDS011;49961;43.970;22.868;2023-03-01T01:30:08;31.48;;;27.88;;
63807;SDS011;49961;43.970;22.868;2023-03-01T01:31:09;30.85;;;27.30;;
63807;SDS011;49961;43.970;22.868;2023-03-01T01:32:10;33.63;;;28.83;;
63807;SDS011;49961;43.970;22.868;2023-03-01T01:33:11;30.60;;;27.17;;
63807;SDS011;49961;43.970;22.868;2023-03-01T01:34:15;30.93;;;27.37;;
63807;SDS011;49961;43.970;22.868;2023-03-01T01:35:18;30.83;;;27.20;;
63807;SDS011;49961;43.970;22.868;2023-03-01T01:36:19;29.17;;;25.97;;
63807;SDS011;49961;43.970;22.868;2023-03-01T01:37:20;29.02;;;25.83;;
63807;SDS011;49961;43.970;22.868;2023-03-01T01:38:20;31.47;;;27.23;;
63807;SDS011;49961;43.970;22.868;2023-03-01T01:39:21;28.97;;;25.80;;
63807;SDS011;49961;43.970;22.868;2023-03-01T01:40:22;32.97;;;26.10;;
63807;SDS011;49961;43.970;22.868;2023-03-01T01:41:23;30.37;;;26.53;;
63807;SDS011;49961;43.970;22.868;2023-03-01T01:42:24;28.70;;;25.38;;
63807;SDS011;49961;43.970;22.868;2023-03-01T01:43:27;29.70;;;25.87;;
63807;SDS011;49961;43.970;22.868;2023-03-01T01:44:33;30.40;;;26.48;;
63807;SDS011;49961;43.970;22.868;2023-03-01T01:45:34;28.40;;;25.27;;
63807;SDS011;49961;43.970;22.868;2023-03-01T01:46:36;29.80;;;25.33;;
63807;SDS011;49961;43.970;22.868;2023-03-01T01:47:38;28.98;;;25.00;;
63807;SDS011;49961;43.970;22.868;2023-03-01T01:48:41;29.27;;;26.07;;
63807;SDS011;49961;43.970;22.868;2023-03-01T01:49:47;30.93;;;26.33;;
63807;SDS011;49961;43.970;22.868;2023-03-01T01:50:54;29.10;;;24.53;;
63807;SDS011;49961;43.970;22.868;2023-03-01T01:52:20;28.98;;;24.52;;
63807;SDS011;49961;43.970;22.868;2023-03-01T01:53:24;28.33;;;25.15;;
63807;SDS011;49961;43.970;22.868;2023-03-01T01:54:27;27.58;;;24.63;;
63807;SDS011;49961;43.970;22.868;2023-03-01T01:55:35;29.02;;;25.60;;
63807;SDS011;49961;43.970;22.868;2023-03-01T01:56:40;28.17;;;24.20;;
63807;SDS011;49961;43.970;22.868;2023-03-01T01:57:48;27.38;;;24.27;;
63807;SDS011;49961;43.970;22.868;2023-03-01T01:58:55;27.87;;;24.67;;
63807;SDS011;49961;43.970;22.868;2023-03-01T01:59:57;28.40;;;24.80;;
63807;SDS011;49961;43.970;22.868;2023-03-01T02:01:00;27.45;;;24.40;;
63807;SDS011;49961;43.970;22.868;2023-03-01T02:02:01;27.73;;;24.08;;
63807;SDS011;49961;43.970;22.868;2023-03-01T02:03:08;27.60;;;24.13;;
63807;SDS011;49961;43.970;22.868;2023-03-01T02:04:13;26.95;;;24.10;;
63807;SDS011;49961;43.970;22.868;2023-03-01T02:06:55;33.40;;;24.27;;
63807;SDS011;49961;43.970;22.868;2023-03-01T02:08:00;26.85;;;23.92;;
63807;SDS011;49961;43.970;22.868;2023-03-01T02:09:03;27.63;;;24.07;;
63807;SDS011;49961;43.970;22.868;2023-03-01T02:10:08;27.38;;;24.48;;
63807;SDS011;49961;43.970;22.868;2023-03-01T02:11:09;24.98;;;22.38;;
63807;SDS011;49961;43.970;22.868;2023-03-01T02:12:11;26.10;;;23.30;;
63807;SDS011;49961;43.970;22.868;2023-03-01T02:13:13;26.55;;;23.52;;
63807;SDS011;49961;43.970;22.868;2023-03-01T02:14:14;26.80;;;23.73;;
63807;SDS011;49961;43.970;22.868;2023-03-01T02:15:15;27.27;;;24.38;;
63807;SDS011;49961;43.970;22.868;2023-03-01T02:16:16;28.53;;;24.87;;
63807;SDS011;49961;43.970;22.868;2023-03-01T02:17:17;27.70;;;24.33;;
63807;SDS011;49961;43.970;22.868;2023-03-01T02:18:19;27.05;;;24.13;;
63807;SDS011;49961;43.970;22.868;2023-03-01T02:19:30;27.80;;;24.20;;
63807;SDS011;49961;43.970;22.868;2023-03-01T02:20:35;27.38;;;24.48;;
63807;SDS011;49961;43.970;22.868;2023-03-01T02:23:07;27.40;;;23.15;;
63807;SDS011;49961;43.970;22.868;2023-03-01T02:27:11;24.08;;;21.48;;
63807;SDS011;49961;43.970;22.868;2023-03-01T02:29:15;24.00;;;21.35;;
63807;SDS011;49961;43.970;22.868;2023-03-01T02:30:16;24.17;;;21.67;;
63807;SDS011;49961;43.970;22.868;2023-03-01T02:31:19;23.95;;;21.23;;
63807;SDS011;49961;43.970;22.868;2023-03-01T02:32:40;24.08;;;21.25;;
63807;SDS011;49961;43.970;22.868;2023-03-01T02:33:41;25.83;;;21.67;;
63807;SDS011;49961;43.970;22.868;2023-03-01T02:34:44;23.73;;;21.15;;
63807;SDS011;49961;43.970;22.868;2023-03-01T02:35:44;24.27;;;21.70;;
63807;SDS011;49961;43.970;22.868;2023-03-01T02:36:47;26.48;;;22.02;;
63807;SDS011;49961;43.970;22.868;2023-03-01T02:37:50;23.27;;;20.45;;
63807;SDS011;49961;43.970;22.868;2023-03-01T02:38:52;23.40;;;21.00;;
63807;SDS011;49961;43.970;22.868;2023-03-01T02:39:59;23.65;;;20.48;;
63807;SDS011;49961;43.970;22.868;2023-03-01T02:41:04;23.70;;;21.20;;
63807;SDS011;49961;43.970;22.868;2023-03-01T02:42:07;23.63;;;21.17;;
63807;SDS011;49961;43.970;22.868;2023-03-01T02:43:11;22.58;;;20.17;;
63807;SDS011;49961;43.970;22.868;2023-03-01T02:44:13;22.73;;;20.42;;
63807;SDS011;49961;43.970;22.868;2023-03-01T02:45:13;23.67;;;21.17;;
63807;SDS011;49961;43.970;22.868;2023-03-01T02:46:18;23.10;;;20.60;;
63807;SDS011;49961;43.970;22.868;2023-03-01T02:47:21;22.48;;;20.10;;
63807;SDS011;49961;43.970;22.868;2023-03-01T02:48:21;22.70;;;20.37;;
63807;SDS011;49961;43.970;22.868;2023-03-01T02:49:26;23.13;;;20.73;;
63807;SDS011;49961;43.970;22.868;2023-03-01T02:51:50;22.77;;;20.33;;
63807;SDS011;49961;43.970;22.868;2023-03-01T02:53:07;23.20;;;20.73;;
63807;SDS011;49961;43.970;22.868;2023-03-01T02:55:15;22.70;;;20.17;;
63807;SDS011;49961;43.970;22.868;2023-03-01T02:56:17;22.75;;;20.35;;
63807;SDS011;49961;43.970;22.868;2023-03-01T02:57:18;22.17;;;19.97;;
63807;SDS011;49961;43.970;22.868;2023-03-01T02:58:19;23.40;;;19.60;;
63807;SDS011;49961;43.970;22.868;2023-03-01T02:59:21;22.70;;;20.30;;
63807;SDS011;49961;43.970;22.868;2023-03-01T03:00:26;22.65;;;20.10;;
63807;SDS011;49961;43.970;22.868;2023-03-01T03:01:29;21.58;;;19.30;;
63807;SDS011;49961;43.970;22.868;2023-03-01T03:02:36;22.67;;;20.38;;
63807;SDS011;49961;43.970;22.868;2023-03-01T03:03:37;23.27;;;20.43;;
63807;SDS011;49961;43.970;22.868;2023-03-01T03:04:37;22.30;;;20.03;;
63807;SDS011;49961;43.970;22.868;2023-03-01T03:05:38;22.17;;;19.60;;
63807;SDS011;49961;43.970;22.868;2023-03-01T03:06:38;23.40;;;19.50;;
63807;SDS011;49961;43.970;22.868;2023-03-01T03:07:39;21.80;;;19.50;;
63807;SDS011;49961;43.970;22.868;2023-03-01T03:08:42;23.10;;;20.70;;
63807;SDS011;49961;43.970;22.868;2023-03-01T03:09:43;22.50;;;20.20;;
63807;SDS011;49961;43.970;22.868;2023-03-01T03:10:44;22.33;;;19.93;;
63807;SDS011;49961;43.970;22.868;2023-03-01T03:11:45;22.00;;;19.70;;
63807;SDS011;49961;43.970;22.868;2023-03-01T03:12:52;21.90;;;19.60;;
63807;SDS011;49961;43.970;22.868;2023-03-01T03:13:55;21.15;;;18.95;;
63807;SDS011;49961;43.970;22.868;2023-03-01T03:14:57;21.83;;;19.55;;
63807;SDS011;49961;43.970;22.868;2023-03-01T03:15:58;22.63;;;20.23;;
63807;SDS011;49961;43.970;22.868;2023-03-01T03:16:58;21.83;;;19.33;;
63807;SDS011;49961;43.970;22.868;2023-03-01T03:17:58;22.33;;;19.13;;
63807;SDS011;49961;43.970;22.868;2023-03-01T03:18:59;23.30;;;20.80;;
63807;SDS011;49961;43.970;22.868;2023-03-01T03:20:05;20.92;;;18.73;;
63807;SDS011;49961;43.970;22.868;2023-03-01T03:21:11;22.70;;;20.40;;
63807;SDS011;49961;43.970;22.868;2023-03-01T03:22:12;22.38;;;19.63;;
63807;SDS011;49961;43.970;22.868;2023-03-01T03:23:13;22.73;;;20.33;;
63807;SDS011;49961;43.970;22.868;2023-03-01T03:24:13;23.07;;;20.67;;
63807;SDS011;49961;43.970;22.868;2023-03-01T03:25:14;23.27;;;20.87;;
63807;SDS011;49961;43.970;22.868;2023-03-01T03:26:15;22.92;;;20.52;;
63807;SDS011;49961;43.970;22.868;2023-03-01T03:27:16;22.93;;;20.20;;
63807;SDS011;49961;43.970;22.868;2023-03-01T03:28:16;21.60;;;19.30;;
63807;SDS011;49961;43.970;22.868;2023-03-01T03:29:17;22.13;;;19.67;;
63807;SDS011;49961;43.970;22.868;2023-03-01T03:30:18;21.27;;;18.70;;
63807;SDS011;49961;43.970;22.868;2023-03-01T03:31:21;20.52;;;18.35;;
63807;SDS011;49961;43.970;22.868;2023-03-01T03:32:22;22.47;;;20.17;;
63807;SDS011;49961;43.970;22.868;2023-03-01T03:33:22;21.40;;;19.07;;
63807;SDS011;49961;43.970;22.868;2023-03-01T03:34:23;22.37;;;19.00;;
63807;SDS011;49961;43.970;22.868;2023-03-01T03:35:28;21.83;;;19.53;;
63807;SDS011;49961;43.970;22.868;2023-03-01T03:36:30;21.75;;;19.45;;
63807;SDS011;49961;43.970;22.868;2023-03-01T03:37:30;21.83;;;19.53;;
63807;SDS011;49961;43.970;22.868;2023-03-01T03:38:49;22.23;;;19.83;;
63807;SDS011;49961;43.970;22.868;2023-03-01T03:39:50;21.80;;;19.50;;
63807;SDS011;49961;43.970;22.868;2023-03-01T03:41:02;21.15;;;18.90;;
63807;SDS011;49961;43.970;22.868;2023-03-01T03:42:04;22.10;;;19.73;;
63807;SDS011;49961;43.970;22.868;2023-03-01T03:47:21;22.77;;;19.35;;
63807;SDS011;49961;43.970;22.868;2023-03-01T03:48:41;20.73;;;18.52;;
63807;SDS011;49961;43.970;22.868;2023-03-01T03:49:43;20.52;;;18.42;;
63807;SDS011;49961;43.970;22.868;2023-03-01T03:50:47;20.97;;;18.40;;
63807;SDS011;49961;43.970;22.868;2023-03-01T03:51:52;21.08;;;18.85;;
63807;SDS011;49961;43.970;22.868;2023-03-01T03:52:53;21.27;;;19.07;;
63807;SDS011;49961;43.970;22.868;2023-03-01T03:53:53;20.93;;;18.53;;
63807;SDS011;49961;43.970;22.868;2023-03-01T03:54:54;21.67;;;18.77;;
63807;SDS011;49961;43.970;22.868;2023-03-01T03:55:54;20.93;;;18.70;;
63807;SDS011;49961;43.970;22.868;2023-03-01T03:56:55;20.07;;;17.80;;
63807;SDS011;49961;43.970;22.868;2023-03-01T03:57:59;22.20;;;18.97;;
63807;SDS011;49961;43.970;22.868;2023-03-01T03:59:06;20.33;;;18.23;;
63807;SDS011;49961;43.970;22.868;2023-03-01T04:01:26;20.50;;;18.30;;
63807;SDS011;49961;43.970;22.868;2023-03-01T04:02:26;20.03;;;17.13;;
63807;SDS011;49961;43.970;22.868;2023-03-01T04:03:27;20.27;;;18.17;;
63807;SDS011;49961;43.970;22.868;2023-03-01T04:04:29;20.45;;;18.35;;
63807;SDS011;49961;43.970;22.868;2023-03-01T04:05:30;19.63;;;17.63;;
63807;SDS011;49961;43.970;22.868;2023-03-01T04:06:30;20.73;;;18.52;;
63807;SDS011;49961;43.970;22.868;2023-03-01T04:07:31;21.33;;;18.37;;
63807;SDS011;49961;43.970;22.868;2023-03-01T04:08:31;19.60;;;17.50;;
63807;SDS011;49961;43.970;22.868;2023-03-01T04:09:32;20.57;;;18.50;;
63807;SDS011;49961;43.970;22.868;2023-03-01T04:10:34;19.33;;;17.43;;
63807;SDS011;49961;43.970;22.868;2023-03-01T04:11:37;19.98;;;17.65;;
63807;SDS011;49961;43.970;22.868;2023-03-01T04:12:38;19.13;;;17.10;;
63807;SDS011;49961;43.970;22.868;2023-03-01T04:13:39;19.20;;;17.27;;
63807;SDS011;49961;43.970;22.868;2023-03-01T04:14:39;19.90;;;17.73;;
63807;SDS011;49961;43.970;22.868;2023-03-01T04:15:40;20.13;;;18.03;;
63807;SDS011;49961;43.970;22.868;2023-03-01T04:16:40;21.60;;;18.93;;
63807;SDS011;49961;43.970;22.868;2023-03-01T04:17:44;19.60;;;17.57;;
63807;SDS011;49961;43.970;22.868;2023-03-01T04:18:46;19.20;;;17.20;;
63807;SDS011;49961;43.970;22.868;2023-03-01T04:19:47;20.03;;;17.93;;
63807;SDS011;49961;43.970;22.868;2023-03-01T04:20:48;19.92;;;17.88;;
63807;SDS011;49961;43.970;22.868;2023-03-01T04:21:51;20.55;;;18.35;;
63807;SDS011;49961;43.970;22.868;2023-03-01T04:22:55;20.67;;;18.43;;
63807;SDS011;49961;43.970;22.868;2023-03-01T04:24:10;20.67;;;17.88;;
63807;SDS011;49961;43.970;22.868;2023-03-01T04:25:11;21.30;;;18.20;;
63807;SDS011;49961;43.970;22.868;2023-03-01T04:26:13;20.70;;;18.50;;
63807;SDS011;49961;43.970;22.868;2023-03-01T04:27:14;20.60;;;18.50;;
63807;SDS011;49961;43.970;22.868;2023-03-01T04:28:14;21.13;;;18.90;;
63807;SDS011;49961;43.970;22.868;2023-03-01T04:29:15;20.27;;;18.17;;
63807;SDS011;49961;43.970;22.868;2023-03-01T04:32:12;19.67;;;17.58;;
63807;SDS011;49961;43.970;22.868;2023-03-01T04:33:16;20.25;;;18.15;;
63807;SDS011;49961;43.970;22.868;2023-03-01T04:34:17;22.87;;;18.23;;
63807;SDS011;49961;43.970;22.868;2023-03-01T04:35:17;21.80;;;19.10;;
63807;SDS011;49961;43.970;22.868;2023-03-01T04:36:18;21.87;;;19.50;;
63807;SDS011;49961;43.970;22.868;2023-03-01T04:37:20;22.63;;;19.35;;
63807;SDS011;49961;43.970;22.868;2023-03-01T04:38:20;21.53;;;19.33;;
63807;SDS011;49961;43.970;22.868;2023-03-01T04:39:21;22.03;;;19.73;;
63807;SDS011;49961;43.970;22.868;2023-03-01T04:40:21;21.87;;;19.57;;
63807;SDS011;49961;43.970;22.868;2023-03-01T04:41:23;21.90;;;19.50;;
63807;SDS011;49961;43.970;22.868;2023-03-01T04:42:24;22.90;;;20.30;;
63807;SDS011;49961;43.970;22.868;2023-03-01T04:43:25;22.03;;;19.67;;
63807;SDS011;49961;43.970;22.868;2023-03-01T04:44:25;22.07;;;19.40;;
63807;SDS011;49961;43.970;22.868;2023-03-01T04:45:26;22.07;;;19.77;;
63807;SDS011;49961;43.970;22.868;2023-03-01T04:46:27;22.38;;;19.98;;
63807;SDS011;49961;43.970;22.868;2023-03-01T04:47:28;21.83;;;19.63;;
63807;SDS011;49961;43.970;22.868;2023-03-01T04:48:29;21.97;;;19.57;;
63807;SDS011;49961;43.970;22.868;2023-03-01T04:49:30;21.13;;;18.98;;
63807;SDS011;49961;43.970;22.868;2023-03-01T04:50:31;21.17;;;18.93;;
63807;SDS011;49961;43.970;22.868;2023-03-01T04:51:31;21.33;;;19.13;;
63807;SDS011;49961;43.970;22.868;2023-03-01T04:52:35;21.98;;;19.67;;
63807;SDS011;49961;43.970;22.868;2023-03-01T04:53:35;21.00;;;18.77;;
63807;SDS011;49961;43.970;22.868;2023-03-01T04:54:36;21.40;;;19.13;;
63807;SDS011;49961;43.970;22.868;2023-03-01T04:55:37;21.60;;;19.30;;
63807;SDS011;49961;43.970;22.868;2023-03-01T04:56:37;21.17;;;19.03;;
63807;SDS011;49961;43.970;22.868;2023-03-01T04:57:37;22.63;;;20.23;;
63807;SDS011;49961;43.970;22.868;2023-03-01T04:58:38;20.17;;;18.07;;
63807;SDS011;49961;43.970;22.868;2023-03-01T04:59:38;20.77;;;18.47;;
63807;SDS011;49961;43.970;22.868;2023-03-01T05:00:39;22.47;;;19.70;;
63807;SDS011;49961;43.970;22.868;2023-03-01T05:01:39;20.93;;;18.83;;
63807;SDS011;49961;43.970;22.868;2023-03-01T05:02:42;22.25;;;19.15;;
63807;SDS011;49961;43.970;22.868;2023-03-01T05:03:43;20.73;;;18.63;;
63807;SDS011;49961;43.970;22.868;2023-03-01T05:04:45;21.67;;;19.42;;
63807;SDS011;49961;43.970;22.868;2023-03-01T05:05:46;20.87;;;18.73;;
63807;SDS011;49961;43.970;22.868;2023-03-01T05:06:49;20.15;;;18.05;;
63807;SDS011;49961;43.970;22.868;2023-03-01T05:07:50;21.85;;;19.65;;
63807;SDS011;49961;43.970;22.868;2023-03-01T05:08:50;20.97;;;18.77;;
63807;SDS011;49961;43.970;22.868;2023-03-01T05:09:51;20.53;;;18.33;;
63807;SDS011;49961;43.970;22.868;2023-03-01T05:10:52;21.23;;;19.03;;
63807;SDS011;49961;43.970;22.868;2023-03-01T05:11:53;20.65;;;18.55;;
63807;SDS011;49961;43.970;22.868;2023-03-01T05:12:53;20.93;;;18.73;;
63807;SDS011;49961;43.970;22.868;2023-03-01T05:13:54;20.57;;;18.53;;
63807;SDS011;49961;43.970;22.868;2023-03-01T05:14:54;21.40;;;19.23;;
63807;SDS011;49961;43.970;22.868;2023-03-01T05:15:56;19.93;;;17.83;;
63807;SDS011;49961;43.970;22.868;2023-03-01T05:16:58;20.10;;;18.00;;
63807;SDS011;49961;43.970;22.868;2023-03-01T05:18:03;20.33;;;18.13;;
63807;SDS011;49961;43.970;22.868;2023-03-01T05:19:04;23.20;;;19.13;;
63807;SDS011;49961;43.970;22.868;2023-03-01T05:20:11;20.73;;;18.45;;
63807;SDS011;49961;43.970;22.868;2023-03-01T05:21:13;20.93;;;18.73;;
63807;SDS011;49961;43.970;22.868;2023-03-01T05:22:17;20.77;;;18.58;;
63807;SDS011;49961;43.970;22.868;2023-03-01T05:23:19;21.02;;;18.83;;
63807;SDS011;49961;43.970;22.868;2023-03-01T05:24:19;20.50;;;18.40;;
63807;SDS011;49961;43.970;22.868;2023-03-01T05:25:19;22.10;;;19.80;;
63807;SDS011;49961;43.970;22.868;2023-03-01T05:26:21;21.67;;;19.45;;
63807;SDS011;49961;43.970;22.868;2023-03-01T05:27:21;20.80;;;18.60;;
63807;SDS011;49961;43.970;22.868;2023-03-01T05:28:22;23.50;;;21.00;;
63807;SDS011;49961;43.970;22.868;2023-03-01T05:29:23;22.63;;;20.23;;
63807;SDS011;49961;43.970;22.868;2023-03-01T05:30:25;22.60;;;20.25;;
63807;SDS011;49961;43.970;22.868;2023-03-01T05:31:25;23.73;;;20.13;;
63807;SDS011;49961;43.970;22.868;2023-03-01T05:32:26;22.50;;;20.20;;
63807;SDS011;49961;43.970;22.868;2023-03-01T05:33:26;22.73;;;20.33;;
63807;SDS011;49961;43.970;22.868;2023-03-01T05:34:32;24.92;;;20.63;;
63807;SDS011;49961;43.970;22.868;2023-03-01T05:35:35;23.52;;;21.05;;
63807;SDS011;49961;43.970;22.868;2023-03-01T05:36:36;23.53;;;21.03;;
63807;SDS011;49961;43.970;22.868;2023-03-01T05:37:36;23.10;;;20.60;;
63807;SDS011;49961;43.970;22.868;2023-03-01T05:38:36;23.43;;;20.93;;
63807;SDS011;49961;43.970;22.868;2023-03-01T05:39:37;23.33;;;20.77;;
63807;SDS011;49961;43.970;22.868;2023-03-01T05:40:37;22.97;;;20.67;;
63807;SDS011;49961;43.970;22.868;2023-03-01T05:41:38;23.47;;;20.97;;
63807;SDS011;49961;43.970;22.868;2023-03-01T05:42:44;24.00;;;21.08;;
63807;SDS011;49961;43.970;22.868;2023-03-01T05:43:54;22.85;;;20.42;;
63807;SDS011;49961;43.970;22.868;2023-03-01T05:44:54;22.57;;;20.27;;
63807;SDS011;49961;43.970;22.868;2023-03-01T05:45:54;23.50;;;21.00;;
63807;SDS011;49961;43.970;22.868;2023-03-01T05:46:58;22.88;;;20.48;;
63807;SDS011;49961;43.970;22.868;2023-03-01T05:47:58;27.47;;;22.97;;
63807;SDS011;49961;43.970;22.868;2023-03-01T05:48:59;24.17;;;21.67;;
63807;SDS011;49961;43.970;22.868;2023-03-01T05:50:00;21.93;;;19.63;;
63807;SDS011;49961;43.970;22.868;2023-03-01T05:51:00;21.63;;;19.23;;
63807;SDS011;49961;43.970;22.868;2023-03-01T05:52:00;23.57;;;20.90;;
63807;SDS011;49961;43.970;22.868;2023-03-01T05:53:02;21.10;;;18.83;;
63807;SDS011;49961;43.970;22.868;2023-03-01T05:54:04;22.33;;;19.92;;
63807;SDS011;49961;43.970;22.868;2023-03-01T05:55:05;21.35;;;19.10;;
63807;SDS011;49961;43.970;22.868;2023-03-01T05:56:06;21.70;;;19.27;;
63807;SDS011;49961;43.970;22.868;2023-03-01T05:57:07;23.27;;;20.77;;
63807;SDS011;49961;43.970;22.868;2023-03-01T05:58:09;22.47;;;20.17;;
63807;SDS011;49961;43.970;22.868;2023-03-01T05:59:11;23.92;;;21.20;;
63807;SDS011;49961;43.970;22.868;2023-03-01T06:00:14;23.40;;;20.85;;
63807;SDS011;49961;43.970;22.868;2023-03-01T06:01:16;22.05;;;19.75;;
63807;SDS011;49961;43.970;22.868;2023-03-01T06:02:16;22.03;;;19.73;;
63807;SDS011;49961;43.970;22.868;2023-03-01T06:03:17;22.93;;;20.53;;
63807;SDS011;49961;43.970;22.868;2023-03-01T06:04:18;22.70;;;20.30;;
63807;SDS011;49961;43.970;22.868;2023-03-01T06:05:18;21.57;;;19.37;;
63807;SDS011;49961;43.970;22.868;2023-03-01T06:06:18;22.40;;;20.10;;
63807;SDS011;49961;43.970;22.868;2023-03-01T06:07:19;21.67;;;19.27;;
63807;SDS011;49961;43.970;22.868;2023-03-01T06:08:19;22.47;;;20.17;;
63807;SDS011;49961;43.970;22.868;2023-03-01T06:09:22;21.98;;;19.70;;
63807;SDS011;49961;43.970;22.868;2023-03-01T06:10:22;22.23;;;19.93;;
63807;SDS011;49961;43.970;22.868;2023-03-01T06:11:22;22.50;;;20.13;;
63807;SDS011;49961;43.970;22.868;2023-03-01T06:12:23;22.27;;;19.87;;
63807;SDS011;49961;43.970;22.868;2023-03-01T06:13:24;23.73;;;19.47;;
63807;SDS011;49961;43.970;22.868;2023-03-01T06:14:24;21.70;;;19.20;;
63807;SDS011;49961;43.970;22.868;2023-03-01T06:15:25;21.87;;;19.57;;
63807;SDS011;49961;43.970;22.868;2023-03-01T06:16:25;21.70;;;19.40;;